Terminal Aerodrome Forecast
Issued by NWS Charleston, WV

Home | Current Version | Previous Version | Text Only | Print | Product List | Glossary On
Versions: 1 2 3 4 5 6 7 8 9 10 11 12 13 14 15 16 17 18 19 20 21 22 23 24 25 26 27 28 29 30 31 32 33 34 35 36 37 38 39 40 41 42 43 44 45 46
000
FTUS41 KRLX 190859 AAA
TAFCRW
TAF AMD
KCRW 190859Z 1909/2006 14009G18KT P6SM BKN100
     FM191000 17009G18KT P6SM SHRA OVC080
     FM191400 18009G19KT P6SM SHRA OVC050
     FM191700 18010G19KT P6SM SHRA VCTS OVC050CB
     FM192300 20006KT P6SM OVC050
     FM200300 20006KT P6SM BKN025=

USA.gov is the U.S. government's official web portal to all federal, state and local government web resources and services.